createdAt,value
2022-08-19T00:03:07.393Z,48
2022-08-19T00:13:07.489Z,48
2022-08-19T00:23:07.390Z,48
2022-08-19T00:33:07.479Z,48
2022-08-19T00:43:07.589Z,48
2022-08-19T00:53:07.502Z,48
2022-08-19T01:03:07.605Z,48
2022-08-19T01:13:07.478Z,48
2022-08-19T01:23:07.549Z,48
2022-08-19T01:33:07.454Z,48
2022-08-19T01:43:07.563Z,48
2022-08-19T01:53:07.650Z,48
2022-08-19T02:03:07.541Z,48
2022-08-19T02:13:07.639Z,48
2022-08-19T02:23:12.512Z,48
2022-08-19T02:53:07.658Z,48
2022-08-19T03:03:07.558Z,48
2022-08-19T03:23:07.559Z,48
2022-08-19T03:33:07.655Z,48
2022-08-19T03:43:07.546Z,48.5
2022-08-19T03:53:07.649Z,50
2022-08-19T04:03:07.741Z,50
2022-08-19T04:13:07.635Z,49.5
2022-08-19T04:23:07.743Z,48.5
2022-08-19T04:33:07.627Z,48.5
2022-08-19T04:43:07.739Z,50
2022-08-19T04:53:07.647Z,50
2022-08-19T05:03:07.917Z,49.5
2022-08-19T05:13:07.820Z,48.5
2022-08-19T05:23:09.612Z,48.5
2022-08-19T05:33:07.824Z,48.5
2022-08-19T05:43:07.759Z,48.5
2022-08-19T05:53:07.860Z,48.5
2022-08-19T06:03:09.694Z,48.5
2022-08-19T06:13:07.833Z,48.5
2022-08-19T06:23:07.746Z,48.5
2022-08-19T06:33:07.848Z,47
2022-08-19T06:43:08.644Z,44.5
2022-08-19T06:53:07.831Z,42.5
2022-08-19T07:03:09.088Z,40.5
2022-08-19T07:13:07.829Z,38.5
2022-08-19T07:23:07.936Z,38
2022-08-19T07:33:07.832Z,34
2022-08-19T07:43:11.191Z,32.5
2022-08-19T07:53:07.810Z,32
2022-08-19T08:03:07.912Z,32
2022-08-19T08:13:09.750Z,30.5
2022-08-19T08:23:07.928Z,28.5
2022-08-19T08:33:08.058Z,30
2022-08-19T08:43:10.954Z,38
2022-08-19T08:53:08.006Z,42
2022-08-19T09:03:07.899Z,42
2022-08-19T09:13:09.122Z,42.5
2022-08-19T09:23:07.905Z,40
2022-08-19T09:33:07.951Z,35.5
2022-08-19T09:43:10.146Z,37
2022-08-19T09:53:09.058Z,40
2022-08-19T10:03:08.177Z,40
2022-08-19T10:13:08.109Z,40
2022-08-19T10:23:07.988Z,40
2022-08-19T10:33:11.145Z,40
2022-08-19T10:43:07.989Z,42
2022-08-19T10:53:09.722Z,42
2022-08-19T11:03:07.990Z,42
2022-08-19T11:13:08.086Z,42
2022-08-19T11:23:08.218Z,42
2022-08-19T11:33:08.089Z,42
2022-08-19T11:43:08.182Z,44
2022-08-19T11:53:08.075Z,44
2022-08-19T12:03:08.178Z,44
2022-08-19T12:13:08.075Z,44
2022-08-19T12:23:08.176Z,44
2022-08-19T12:33:08.263Z,44
2022-08-19T12:43:08.169Z,44
2022-08-19T12:53:08.284Z,44
2022-08-19T13:03:08.177Z,44
2022-08-19T13:13:08.279Z,44
2022-08-19T13:23:08.176Z,44
2022-08-19T13:33:08.275Z,44
2022-08-19T13:43:13.526Z,44
2022-08-19T13:53:08.273Z,43
2022-08-19T14:03:09.353Z,43.5
2022-08-19T14:13:08.268Z,44
2022-08-19T14:23:08.365Z,44
2022-08-19T14:33:08.259Z,44
2022-08-19T14:43:08.357Z,44
2022-08-19T14:53:09.134Z,44
2022-08-19T15:03:08.357Z,44
2022-08-19T15:13:08.250Z,44.5
2022-08-19T15:23:08.344Z,44.5
2022-08-19T15:33:08.446Z,44.5
2022-08-19T15:43:08.347Z,44.5
2022-08-19T15:53:08.443Z,44.5
2022-08-19T16:03:08.340Z,44.5
2022-08-19T16:13:08.432Z,44
2022-08-19T16:23:08.330Z,44
2022-08-19T16:33:08.439Z,44
2022-08-19T16:43:08.350Z,44
2022-08-19T16:53:08.448Z,44
2022-08-19T17:03:10.898Z,44
2022-08-19T17:13:08.565Z,44
2022-08-19T17:23:10.894Z,44
2022-08-19T17:33:08.529Z,44
2022-08-19T17:43:08.424Z,44
2022-08-19T17:53:08.539Z,44
2022-08-19T18:03:08.432Z,44
2022-08-19T18:13:17.492Z,46
2022-08-19T18:23:41.725Z,46
2022-08-19T18:33:09.176Z,46
2022-08-19T18:43:09.049Z,46
2022-08-19T18:53:09.739Z,46
2022-08-19T19:03:09.282Z,46
2022-08-19T19:13:09.078Z,46
2022-08-19T19:23:08.643Z,46
2022-08-19T19:33:08.513Z,47.5
2022-08-19T19:43:08.611Z,47.5
2022-08-19T19:53:08.707Z,48
2022-08-19T20:03:08.610Z,48
2022-08-19T20:13:08.700Z,48
2022-08-19T20:23:08.603Z,48
2022-08-19T20:33:08.696Z,48
2022-08-19T20:43:08.596Z,48
2022-08-19T20:53:08.692Z,48
2022-08-19T21:03:08.596Z,48
2022-08-19T21:13:08.689Z,48
2022-08-19T21:23:08.787Z,48
2022-08-19T21:33:08.682Z,48
2022-08-19T21:43:08.779Z,48
2022-08-19T21:53:08.679Z,48
2022-08-19T22:03:08.783Z,48
2022-08-19T22:13:08.682Z,48
2022-08-19T22:23:08.777Z,48
2022-08-19T22:33:08.677Z,48
2022-08-19T22:43:08.777Z,48
2022-08-19T22:53:08.871Z,48
2022-08-19T23:03:08.762Z,48
2022-08-19T23:13:08.870Z,48
2022-08-19T23:23:08.765Z,48
2022-08-19T23:33:12.772Z,48
2022-08-19T23:43:09.647Z,48
2022-08-19T23:53:08.864Z,48
